Etusivu
METAR-TAF:

METAR-TAF

Lentoasemat :

Redstone Arsenal, Alabama, Yhdysvallat

Leveyspiiri: 34-40-43N, Pituuspiiri: 086-41-05W, korkeus merenpinnasta: 209 m

Tämänhetkinen sää

Tämä raportti tehtiin 1 tunti ja 4 minuuttia sitten, kello 22.58 UTC
tyyntä
Lämpötila 19°C
Kosteus 100%
Ilmanpaine 1017 hPa
Näkyvyys: 12.9 km
Hajonneita pilviä 3600 ft:n korkeudessa
Hajonneita pilviä 4400 ft:n korkeudessa
Pilvistä 5500 ft:n korkeudessa

METAR: KHUA 272258Z AUTO 00000KT 8SM BKN036 BKN044 OVC055 19/19 A3004 RMK AO2 RAB00E28 SLP170 P0004 T01900187

Aika: 18:02 (00:02 UTC)


TAF: puuttuu

Säähavainnot ja -ennusteet yli 4000 lentoasemalta (METAR- ja TAF-raportit).

Käytössä olevat sääasemat on merkitty karttaan keltaisilla ja punaisilla pisteillä.

Aseta hiiri pisteen päälle nähdäksesi sääaseman nimen.

Klikkaa sitten nähdäksesi säähavainnot ja -ennusteet.

Kartan vaihtaminen: klikkaa mustalla rastilla varustettuja vihreitä pisteitä, niin voit zoomata sisään; viivalla varustettua vihreää pistettä, niin voit zoomata ulos tai vihreitä nuolia, niin pääset viereisille kartoille.


METAR-TAF: